sensor_id;sensor_type;location;lat;lon;timestamp;pressure;altitude;pressure_sealevel;temperature
69420;BMP280;56612;52.030;113.524;2022-11-20T00:01:56;93264.03;;;-13.93
69420;BMP280;56612;52.030;113.524;2022-11-20T00:04:59;93266.41;;;-13.95
69420;BMP280;56612;52.030;113.524;2022-11-20T00:08:02;93274.78;;;-13.94
69420;BMP280;56612;52.030;113.524;2022-11-20T00:11:07;93271.06;;;-13.93
69420;BMP280;56612;52.030;113.524;2022-11-20T00:14:17;93265.69;;;-13.95
69420;BMP280;56612;52.030;113.524;2022-11-20T00:17:21;93270.56;;;-13.92
69420;BMP280;56612;52.030;113.524;2022-11-20T00:20:24;93268.00;;;-13.86
69420;BMP280;56612;52.030;113.524;2022-11-20T00:23:28;93275.66;;;-13.80
69420;BMP280;56612;52.030;113.524;2022-11-20T00:26:31;93281.00;;;-13.73
69420;BMP280;56612;52.030;113.524;2022-11-20T00:29:34;93273.00;;;-13.52
69420;BMP280;56612;52.030;113.524;2022-11-20T00:32:38;93280.94;;;-13.09
69420;BMP280;56612;52.030;113.524;2022-11-20T00:35:42;93271.56;;;-12.71
69420;BMP280;56612;52.030;113.524;2022-11-20T00:38:45;93278.91;;;-12.86
69420;BMP280;56612;52.030;113.524;2022-11-20T00:41:48;93278.09;;;-13.00
69420;BMP280;56612;52.030;113.524;2022-11-20T00:44:52;93281.00;;;-12.54
69420;BMP280;56612;52.030;113.524;2022-11-20T00:47:55;93268.19;;;-12.11
69420;BMP280;56612;52.030;113.524;2022-11-20T00:50:59;93281.34;;;-11.71
69420;BMP280;56612;52.030;113.524;2022-11-20T00:54:03;93275.75;;;-11.75
69420;BMP280;56612;52.030;113.524;2022-11-20T00:57:06;93280.50;;;-11.79
69420;BMP280;56612;52.030;113.524;2022-11-20T01:00:09;93280.84;;;-11.70
69420;BMP280;56612;52.030;113.524;2022-11-20T01:03:13;93283.22;;;-11.34
69420;BMP280;56612;52.030;113.524;2022-11-20T01:06:26;93286.16;;;-11.24
69420;BMP280;56612;52.030;113.524;2022-11-20T01:09:29;93279.44;;;-11.14
69420;BMP280;56612;52.030;113.524;2022-11-20T01:12:33;93286.38;;;-10.77
69420;BMP280;56612;52.030;113.524;2022-11-20T01:15:37;93285.66;;;-10.32
69420;BMP280;56612;52.030;113.524;2022-11-20T01:18:43;93282.00;;;-10.10
69420;BMP280;56612;52.030;113.524;2022-11-20T01:21:49;93280.88;;;-10.15
69420;BMP280;56612;52.030;113.524;2022-11-20T01:24:52;93290.25;;;-10.12
69420;BMP280;56612;52.030;113.524;2022-11-20T01:27:56;93281.69;;;-9.46
69420;BMP280;56612;52.030;113.524;2022-11-20T01:31:00;93273.34;;;-9.18
69420;BMP280;56612;52.030;113.524;2022-11-20T01:34:09;93284.28;;;-8.41
69420;BMP280;56612;52.030;113.524;2022-11-20T01:37:13;93283.06;;;-8.04
69420;BMP280;56612;52.030;113.524;2022-11-20T01:40:16;93278.03;;;-7.66
69420;BMP280;56612;52.030;113.524;2022-11-20T01:43:20;93262.03;;;-7.34
69420;BMP280;56612;52.030;113.524;2022-11-20T01:46:23;93265.88;;;-6.81
69420;BMP280;56612;52.030;113.524;2022-11-20T01:49:40;93259.69;;;-6.15
69420;BMP280;56612;52.030;113.524;2022-11-20T01:52:50;93262.00;;;-6.42
69420;BMP280;56612;52.030;113.524;2022-11-20T01:55:58;93265.09;;;-5.80
69420;BMP280;56612;52.030;113.524;2022-11-20T01:59:06;93256.50;;;-5.58
69420;BMP280;56612;52.030;113.524;2022-11-20T02:02:11;93257.50;;;-5.28
69420;BMP280;56612;52.030;113.524;2022-11-20T02:08:51;93255.22;;;-4.57
69420;BMP280;56612;52.030;113.524;2022-11-20T02:11:55;93254.81;;;-6.11
69420;BMP280;56612;52.030;113.524;2022-11-20T02:14:59;93250.44;;;-7.99
69420;BMP280;56612;52.030;113.524;2022-11-20T02:18:03;93248.03;;;-9.12
69420;BMP280;56612;52.030;113.524;2022-11-20T02:24:29;93243.44;;;-9.95
69420;BMP280;56612;52.030;113.524;2022-11-20T02:27:33;93241.06;;;-10.19
69420;BMP280;56612;52.030;113.524;2022-11-20T02:30:37;93240.84;;;-10.35
69420;BMP280;56612;52.030;113.524;2022-11-20T02:33:40;93231.03;;;-10.49
69420;BMP280;56612;52.030;113.524;2022-11-20T02:36:44;93238.47;;;-10.46
69420;BMP280;56612;52.030;113.524;2022-11-20T02:39:50;93245.78;;;-10.76
69420;BMP280;56612;52.030;113.524;2022-11-20T02:42:56;93241.78;;;-10.91
69420;BMP280;56612;52.030;113.524;2022-11-20T02:45:59;93243.69;;;-10.91
69420;BMP280;56612;52.030;113.524;2022-11-20T02:49:12;93244.50;;;-11.47
69420;BMP280;56612;52.030;113.524;2022-11-20T02:52:15;93247.56;;;-11.68
69420;BMP280;56612;52.030;113.524;2022-11-20T02:55:19;93247.81;;;-11.52
69420;BMP280;56612;52.030;113.524;2022-11-20T02:58:22;93244.88;;;-11.43
69420;BMP280;56612;52.030;113.524;2022-11-20T03:01:25;93245.38;;;-11.26
69420;BMP280;56612;52.030;113.524;2022-11-20T03:04:28;93247.66;;;-11.22
69420;BMP280;56612;52.030;113.524;2022-11-20T03:07:31;93239.47;;;-11.58
69420;BMP280;56612;52.030;113.524;2022-11-20T03:10:35;93237.19;;;-11.62
69420;BMP280;56612;52.030;113.524;2022-11-20T03:13:38;93243.72;;;-11.42
69420;BMP280;56612;52.030;113.524;2022-11-20T03:16:41;93237.84;;;-11.24
69420;BMP280;56612;52.030;113.524;2022-11-20T03:19:44;93222.78;;;-11.06
69420;BMP280;56612;52.030;113.524;2022-11-20T03:22:48;93227.56;;;-10.97
69420;BMP280;56612;52.030;113.524;2022-11-20T03:25:52;93224.25;;;-10.92
69420;BMP280;56612;52.030;113.524;2022-11-20T03:29:02;93221.47;;;-10.81
69420;BMP280;56612;52.030;113.524;2022-11-20T03:32:07;93212.66;;;-10.72
69420;BMP280;56612;52.030;113.524;2022-11-20T03:35:11;93213.94;;;-10.66
69420;BMP280;56612;52.030;113.524;2022-11-20T03:38:20;93210.28;;;-10.70
69420;BMP280;56612;52.030;113.524;2022-11-20T03:41:25;93202.44;;;-10.51
69420;BMP280;56612;52.030;113.524;2022-11-20T03:44:29;93213.16;;;-10.34
69420;BMP280;56612;52.030;113.524;2022-11-20T03:47:33;93204.22;;;-10.46
69420;BMP280;56612;52.030;113.524;2022-11-20T03:50:35;93205.91;;;-10.36
69420;BMP280;56612;52.030;113.524;2022-11-20T03:53:41;93202.53;;;-10.30
69420;BMP280;56612;52.030;113.524;2022-11-20T03:56:45;93196.47;;;-10.20
69420;BMP280;56612;52.030;113.524;2022-11-20T03:59:48;93193.75;;;-10.14
69420;BMP280;56612;52.030;113.524;2022-11-20T04:02:51;93192.47;;;-10.07
69420;BMP280;56612;52.030;113.524;2022-11-20T04:05:55;93188.59;;;-10.01
69420;BMP280;56612;52.030;113.524;2022-11-20T04:08:58;93185.75;;;-9.90
69420;BMP280;56612;52.030;113.524;2022-11-20T04:12:02;93175.91;;;-9.78
69420;BMP280;56612;52.030;113.524;2022-11-20T04:15:05;93181.34;;;-9.68
69420;BMP280;56612;52.030;113.524;2022-11-20T04:18:09;93182.81;;;-9.60
69420;BMP280;56612;52.030;113.524;2022-11-20T04:21:13;93179.38;;;-9.54
69420;BMP280;56612;52.030;113.524;2022-11-20T04:24:16;93175.84;;;-9.65
69420;BMP280;56612;52.030;113.524;2022-11-20T04:27:20;93181.84;;;-9.49
69420;BMP280;56612;52.030;113.524;2022-11-20T04:30:24;93175.41;;;-9.35
69420;BMP280;56612;52.030;113.524;2022-11-20T04:33:27;93171.56;;;-9.41
69420;BMP280;56612;52.030;113.524;2022-11-20T04:36:35;93166.63;;;-9.32
69420;BMP280;56612;52.030;113.524;2022-11-20T04:39:39;93162.09;;;-9.18
69420;BMP280;56612;52.030;113.524;2022-11-20T04:42:43;93162.22;;;-9.23
69420;BMP280;56612;52.030;113.524;2022-11-20T04:45:51;93164.53;;;-9.12
69420;BMP280;56612;52.030;113.524;2022-11-20T04:48:55;93165.91;;;-9.11
69420;BMP280;56612;52.030;113.524;2022-11-20T04:51:59;93160.34;;;-8.94
69420;BMP280;56612;52.030;113.524;2022-11-20T04:55:03;93159.03;;;-8.80
69420;BMP280;56612;52.030;113.524;2022-11-20T04:58:07;93153.91;;;-8.72
69420;BMP280;56612;52.030;113.524;2022-11-20T05:01:13;93149.94;;;-8.66
69420;BMP280;56612;52.030;113.524;2022-11-20T05:04:19;93146.84;;;-8.72
69420;BMP280;56612;52.030;113.524;2022-11-20T05:07:23;93150.34;;;-8.62
69420;BMP280;56612;52.030;113.524;2022-11-20T05:10:27;93148.09;;;-8.58
69420;BMP280;56612;52.030;113.524;2022-11-20T05:13:31;93149.69;;;-8.55
69420;BMP280;56612;52.030;113.524;2022-11-20T05:16:35;93134.34;;;-8.37
69420;BMP280;56612;52.030;113.524;2022-11-20T05:19:39;93137.53;;;-8.16
69420;BMP280;56612;52.030;113.524;2022-11-20T05:22:44;93137.34;;;-8.18
69420;BMP280;56612;52.030;113.524;2022-11-20T05:25:48;93135.31;;;-8.12
69420;BMP280;56612;52.030;113.524;2022-11-20T05:28:59;93132.38;;;-7.93
69420;BMP280;56612;52.030;113.524;2022-11-20T05:32:02;93123.81;;;-7.80
69420;BMP280;56612;52.030;113.524;2022-11-20T05:35:06;93123.47;;;-7.61
69420;BMP280;56612;52.030;113.524;2022-11-20T05:38:10;93124.13;;;-7.30
69420;BMP280;56612;52.030;113.524;2022-11-20T05:41:17;93119.25;;;-7.03
69420;BMP280;56612;52.030;113.524;2022-11-20T05:44:21;93127.94;;;-5.88
69420;BMP280;56612;52.030;113.524;2022-11-20T05:47:26;93126.69;;;-3.96
69420;BMP280;56612;52.030;113.524;2022-11-20T05:50:31;93136.81;;;-1.13
69420;BMP280;56612;52.030;113.524;2022-11-20T05:53:36;93133.16;;;2.20
69420;BMP280;56612;52.030;113.524;2022-11-20T05:56:47;93128.41;;;-1.00
69420;BMP280;56612;52.030;113.524;2022-11-20T05:59:50;93126.13;;;-1.27
69420;BMP280;56612;52.030;113.524;2022-11-20T06:02:54;93140.75;;;0.59
69420;BMP280;56612;52.030;113.524;2022-11-20T06:06:03;93131.22;;;1.54
69420;BMP280;56612;52.030;113.524;2022-11-20T06:09:06;93135.06;;;0.51
69420;BMP280;56612;52.030;113.524;2022-11-20T06:12:10;93130.13;;;1.84
69420;BMP280;56612;52.030;113.524;2022-11-20T06:15:14;93119.06;;;-0.70
69420;BMP280;56612;52.030;113.524;2022-11-20T06:18:19;93135.22;;;0.78
69420;BMP280;56612;52.030;113.524;2022-11-20T06:21:24;93146.69;;;6.70
69420;BMP280;56612;52.030;113.524;2022-11-20T06:24:27;93144.78;;;9.44
69420;BMP280;56612;52.030;113.524;2022-11-20T06:27:30;93133.31;;;6.24
69420;BMP280;56612;52.030;113.524;2022-11-20T06:30:33;93115.16;;;1.22
69420;BMP280;56612;52.030;113.524;2022-11-20T06:33:37;93119.00;;;-0.94
69420;BMP280;56612;52.030;113.524;2022-11-20T06:36:40;93121.31;;;-1.52
69420;BMP280;56612;52.030;113.524;2022-11-20T06:39:44;93133.78;;;0.52
69420;BMP280;56612;52.030;113.524;2022-11-20T06:42:47;93141.69;;;6.80
69420;BMP280;56612;52.030;113.524;2022-11-20T06:45:52;93139.94;;;7.37
69420;BMP280;56612;52.030;113.524;2022-11-20T06:48:56;93139.09;;;8.06
69420;BMP280;56612;52.030;113.524;2022-11-20T06:52:01;93126.59;;;7.84
69420;BMP280;56612;52.030;113.524;2022-11-20T06:55:05;93116.41;;;3.78
69420;BMP280;56612;52.030;113.524;2022-11-20T06:58:10;93110.00;;;0.62
69420;BMP280;56612;52.030;113.524;2022-11-20T07:01:14;93119.66;;;2.84
69420;BMP280;56612;52.030;113.524;2022-11-20T07:04:19;93116.16;;;4.55
69420;BMP280;56612;52.030;113.524;2022-11-20T07:07:22;93112.84;;;3.40
69420;BMP280;56612;52.030;113.524;2022-11-20T07:10:26;93120.22;;;5.12
69420;BMP280;56612;52.030;113.524;2022-11-20T07:13:30;93107.44;;;6.66
69420;BMP280;56612;52.030;113.524;2022-11-20T07:16:34;93109.22;;;5.37
69420;BMP280;56612;52.030;113.524;2022-11-20T07:19:38;93096.84;;;3.68
69420;BMP280;56612;52.030;113.524;2022-11-20T07:22:42;93104.81;;;3.54
69420;BMP280;56612;52.030;113.524;2022-11-20T07:25:46;93102.38;;;2.97
69420;BMP280;56612;52.030;113.524;2022-11-20T07:28:50;93104.88;;;2.63
69420;BMP280;56612;52.030;113.524;2022-11-20T07:31:54;93117.41;;;5.43
69420;BMP280;56612;52.030;113.524;2022-11-20T07:34:59;93118.84;;;7.69
69420;BMP280;56612;52.030;113.524;2022-11-20T07:38:02;93106.03;;;6.22
69420;BMP280;56612;52.030;113.524;2022-11-20T07:41:06;93109.28;;;5.98
69420;BMP280;56612;52.030;113.524;2022-11-20T07:44:09;93116.53;;;6.83
69420;BMP280;56612;52.030;113.524;2022-11-20T07:47:13;93116.56;;;6.40
69420;BMP280;56612;52.030;113.524;2022-11-20T07:50:18;93129.72;;;5.74
69420;BMP280;56612;52.030;113.524;2022-11-20T07:53:23;93112.06;;;3.53
69420;BMP280;56612;52.030;113.524;2022-11-20T07:56:26;93116.00;;;0.39
69420;BMP280;56612;52.030;113.524;2022-11-20T07:59:30;93112.44;;;-0.71
69420;BMP280;56612;52.030;113.524;2022-11-20T08:02:33;93107.72;;;-1.91
69420;BMP280;56612;52.030;113.524;2022-11-20T08:05:38;93113.28;;;-0.90
69420;BMP280;56612;52.030;113.524;2022-11-20T08:08:41;93117.38;;;-0.99
69420;BMP280;56612;52.030;113.524;2022-11-20T08:11:45;93110.22;;;-2.34
69420;BMP280;56612;52.030;113.524;2022-11-20T08:15:08;93107.72;;;-3.31
69420;BMP280;56612;52.030;113.524;2022-11-20T08:18:15;93116.56;;;-4.09
69420;BMP280;56612;52.030;113.524;2022-11-20T08:21:34;93118.94;;;-4.58
69420;BMP280;56612;52.030;113.524;2022-11-20T08:24:40;93112.31;;;-4.86
69420;BMP280;56612;52.030;113.524;2022-11-20T08:27:43;93121.34;;;-5.04
69420;BMP280;56612;52.030;113.524;2022-11-20T08:30:48;93107.63;;;-5.22
69420;BMP280;56612;52.030;113.524;2022-11-20T08:33:53;93121.03;;;-5.25
69420;BMP280;56612;52.030;113.524;2022-11-20T08:36:57;93115.75;;;-5.60
69420;BMP280;56612;52.030;113.524;2022-11-20T08:40:02;93127.63;;;-5.67
69420;BMP280;56612;52.030;113.524;2022-11-20T08:43:05;93118.00;;;-5.81
69420;BMP280;56612;52.030;113.524;2022-11-20T08:46:09;93126.59;;;-5.96
69420;BMP280;56612;52.030;113.524;2022-11-20T08:49:14;93130.22;;;-6.24
69420;BMP280;56612;52.030;113.524;2022-11-20T08:52:17;93136.72;;;-6.48
69420;BMP280;56612;52.030;113.524;2022-11-20T08:55:21;93133.00;;;-6.70
69420;BMP280;56612;52.030;113.524;2022-11-20T08:58:26;93132.38;;;-6.86
69420;BMP280;56612;52.030;113.524;2022-11-20T09:01:30;93141.22;;;-7.04
69420;BMP280;56612;52.030;113.524;2022-11-20T09:04:33;93140.22;;;-7.24
69420;BMP280;56612;52.030;113.524;2022-11-20T09:07:39;93142.47;;;-7.36
69420;BMP280;56612;52.030;113.524;2022-11-20T09:10:43;93137.28;;;-7.43
69420;BMP280;56612;52.030;113.524;2022-11-20T09:13:47;93134.19;;;-7.57
69420;BMP280;56612;52.030;113.524;2022-11-20T09:16:50;93143.50;;;-7.62
69420;BMP280;56612;52.030;113.524;2022-11-20T09:19:55;93133.66;;;-7.71
69420;BMP280;56612;52.030;113.524;2022-11-20T09:22:58;93134.66;;;-7.74
69420;BMP280;56612;52.030;113.524;2022-11-20T09:26:03;93142.28;;;-7.76
69420;BMP280;56612;52.030;113.524;2022-11-20T09:29:08;93145.75;;;-7.66
69420;BMP280;56612;52.030;113.524;2022-11-20T09:32:11;93152.66;;;-7.76
69420;BMP280;56612;52.030;113.524;2022-11-20T09:35:15;93155.09;;;-7.78
69420;BMP280;56612;52.030;113.524;2022-11-20T09:38:19;93159.72;;;-7.84
69420;BMP280;56612;52.030;113.524;2022-11-20T09:41:45;93155.94;;;-7.91
69420;BMP280;56612;52.030;113.524;2022-11-20T09:51:30;93153.91;;;-8.29
69420;BMP280;56612;52.030;113.524;2022-11-20T09:54:38;93153.88;;;-8.36
69420;BMP280;56612;52.030;113.524;2022-11-20T09:57:46;93158.16;;;-8.46
69420;BMP280;56612;52.030;113.524;2022-11-20T10:00:52;93164.19;;;-8.51
69420;BMP280;56612;52.030;113.524;2022-11-20T10:04:03;93171.41;;;-8.65
69420;BMP280;56612;52.030;113.524;2022-11-20T10:07:11;93172.56;;;-8.66
69420;BMP280;56612;52.030;113.524;2022-11-20T10:10:49;93169.38;;;-8.80
69420;BMP280;56612;52.030;113.524;2022-11-20T10:17:52;93172.78;;;-8.93
69420;BMP280;56612;52.030;113.524;2022-11-20T10:24:44;93174.75;;;-9.07
69420;BMP280;56612;52.030;113.524;2022-11-20T10:31:14;93187.38;;;-9.24
69420;BMP280;56612;52.030;113.524;2022-11-20T10:34:27;93190.91;;;-9.55
69420;BMP280;56612;52.030;113.524;2022-11-20T10:37:34;93194.63;;;-9.64
69420;BMP280;56612;52.030;113.524;2022-11-20T10:40:42;93200.13;;;-9.68
69420;BMP280;56612;52.030;113.524;2022-11-20T10:43:48;93197.34;;;-9.70
69420;BMP280;56612;52.030;113.524;2022-11-20T10:46:52;93216.59;;;-9.71
69420;BMP280;56612;52.030;113.524;2022-11-20T10:49:57;93201.09;;;-9.71
69420;BMP280;56612;52.030;113.524;2022-11-20T10:59:38;93222.22;;;-9.80
69420;BMP280;56612;52.030;113.524;2022-11-20T11:02:48;93220.25;;;-9.87
69420;BMP280;56612;52.030;113.524;2022-11-20T11:09:16;93224.25;;;-9.99
69420;BMP280;56612;52.030;113.524;2022-11-20T11:12:22;93224.25;;;-9.99
69420;BMP280;56612;52.030;113.524;2022-11-20T11:15:36;93218.00;;;-10.17
69420;BMP280;56612;52.030;113.524;2022-11-20T11:18:40;93218.59;;;-10.24
69420;BMP280;56612;52.030;113.524;2022-11-20T11:21:53;93225.56;;;-10.32
69420;BMP280;56612;52.030;113.524;2022-11-20T11:24:57;93225.00;;;-10.39
69420;BMP280;56612;52.030;113.524;2022-11-20T11:31:30;93229.84;;;-10.35
69420;BMP280;56612;52.030;113.524;2022-11-20T11:34:34;93229.81;;;-10.48
69420;BMP280;56612;52.030;113.524;2022-11-20T11:37:38;93224.97;;;-10.52
69420;BMP280;56612;52.030;113.524;2022-11-20T11:40:43;93230.44;;;-10.55
69420;BMP280;56612;52.030;113.524;2022-11-20T11:43:54;93226.06;;;-10.61
69420;BMP280;56612;52.030;113.524;2022-11-20T11:47:25;93228.06;;;-10.53
69420;BMP280;56612;52.030;113.524;2022-11-20T11:50:30;93231.59;;;-10.56
69420;BMP280;56612;52.030;113.524;2022-11-20T11:53:40;93228.75;;;-10.53
69420;BMP280;56612;52.030;113.524;2022-11-20T11:56:44;93228.84;;;-10.58
69420;BMP280;56612;52.030;113.524;2022-11-20T12:03:20;93241.31;;;-10.76
69420;BMP280;56612;52.030;113.524;2022-11-20T12:06:25;93235.38;;;-10.84
69420;BMP280;56612;52.030;113.524;2022-11-20T12:09:42;93233.97;;;-10.85
69420;BMP280;56612;52.030;113.524;2022-11-20T12:12:51;93235.25;;;-10.92
69420;BMP280;56612;52.030;113.524;2022-11-20T12:15:56;93229.78;;;-11.01
69420;BMP280;56612;52.030;113.524;2022-11-20T12:18:59;93229.09;;;-11.02
69420;BMP280;56612;52.030;113.524;2022-11-20T12:25:30;93238.56;;;-11.10
69420;BMP280;56612;52.030;113.524;2022-11-20T12:29:00;93241.25;;;-11.16
69420;BMP280;56612;52.030;113.524;2022-11-20T12:35:52;93249.22;;;-11.32
69420;BMP280;56612;52.030;113.524;2022-11-20T12:42:31;93257.41;;;-11.47
69420;BMP280;56612;52.030;113.524;2022-11-20T12:53:07;93261.28;;;-11.78
69420;BMP280;56612;52.030;113.524;2022-11-20T13:06:16;93266.22;;;-11.99
69420;BMP280;56612;52.030;113.524;2022-11-20T13:09:22;93260.59;;;-12.03
69420;BMP280;56612;52.030;113.524;2022-11-20T13:12:49;93269.00;;;-12.22
69420;BMP280;56612;52.030;113.524;2022-11-20T13:16:08;93267.50;;;-12.36
69420;BMP280;56612;52.030;113.524;2022-11-20T13:19:17;93271.66;;;-12.52
69420;BMP280;56612;52.030;113.524;2022-11-20T13:22:41;93269.41;;;-12.42
69420;BMP280;56612;52.030;113.524;2022-11-20T13:25:44;93260.13;;;-12.45
69420;BMP280;56612;52.030;113.524;2022-11-20T13:29:01;93269.00;;;-12.46
69420;BMP280;56612;52.030;113.524;2022-11-20T13:32:12;93273.25;;;-12.49
69420;BMP280;56612;52.030;113.524;2022-11-20T13:35:33;93265.56;;;-12.54
69420;BMP280;56612;52.030;113.524;2022-11-20T13:38:47;93272.19;;;-12.65
69420;BMP280;56612;52.030;113.524;2022-11-20T13:42:00;93276.41;;;-12.67
69420;BMP280;56612;52.030;113.524;2022-11-20T13:45:10;93268.97;;;-12.71
69420;BMP280;56612;52.030;113.524;2022-11-20T13:48:27;93281.50;;;-12.86
69420;BMP280;56612;52.030;113.524;2022-11-20T13:51:42;93278.44;;;-12.84
69420;BMP280;56612;52.030;113.524;2022-11-20T13:55:05;93276.63;;;-12.95
69420;BMP280;56612;52.030;113.524;2022-11-20T14:01:39;93272.16;;;-13.25
69420;BMP280;56612;52.030;113.524;2022-11-20T14:05:02;93267.22;;;-13.23
69420;BMP280;56612;52.030;113.524;2022-11-20T14:08:14;93270.25;;;-13.19
69420;BMP280;56612;52.030;113.524;2022-11-20T14:11:30;93275.38;;;-13.13
69420;BMP280;56612;52.030;113.524;2022-11-20T14:14:34;93280.75;;;-13.17
69420;BMP280;56612;52.030;113.524;2022-11-20T14:17:39;93275.38;;;-13.13
69420;BMP280;56612;52.030;113.524;2022-11-20T14:20:43;93278.09;;;-13.05
69420;BMP280;56612;52.030;113.524;2022-11-20T14:23:47;93287.25;;;-13.10
69420;BMP280;56612;52.030;113.524;2022-11-20T14:26:51;93279.56;;;-13.16
69420;BMP280;56612;52.030;113.524;2022-11-20T14:29:56;93275.19;;;-13.26
69420;BMP280;56612;52.030;113.524;2022-11-20T14:33:02;93275.25;;;-13.32
69420;BMP280;56612;52.030;113.524;2022-11-20T14:36:17;93271.03;;;-13.35
69420;BMP280;56612;52.030;113.524;2022-11-20T14:39:25;93286.09;;;-13.56
69420;BMP280;56612;52.030;113.524;2022-11-20T14:42:29;93291.78;;;-13.74
69420;BMP280;56612;52.030;113.524;2022-11-20T14:45:34;93285.03;;;-13.83
69420;BMP280;56612;52.030;113.524;2022-11-20T14:51:42;93290.91;;;-14.05
69420;BMP280;56612;52.030;113.524;2022-11-20T14:54:49;93293.72;;;-13.97
69420;BMP280;56612;52.030;113.524;2022-11-20T14:57:58;93296.50;;;-14.01
69420;BMP280;56612;52.030;113.524;2022-11-20T15:01:05;93295.34;;;-14.00
69420;BMP280;56612;52.030;113.524;2022-11-20T15:04:11;93291.41;;;-14.18
69420;BMP280;56612;52.030;113.524;2022-11-20T15:07:28;93286.53;;;-14.16
69420;BMP280;56612;52.030;113.524;2022-11-20T15:10:31;93293.31;;;-14.35
69420;BMP280;56612;52.030;113.524;2022-11-20T15:13:39;93290.97;;;-14.33
69420;BMP280;56612;52.030;113.524;2022-11-20T15:16:43;93292.38;;;-14.38
69420;BMP280;56612;52.030;113.524;2022-11-20T15:19:46;93312.66;;;-14.28
69420;BMP280;56612;52.030;113.524;2022-11-20T15:22:49;93312.00;;;-14.46
69420;BMP280;56612;52.030;113.524;2022-11-20T15:25:53;93310.13;;;-14.56
69420;BMP280;56612;52.030;113.524;2022-11-20T15:28:56;93313.59;;;-14.65
69420;BMP280;56612;52.030;113.524;2022-11-20T15:31:59;93310.34;;;-14.71
69420;BMP280;56612;52.030;113.524;2022-11-20T15:35:03;93301.25;;;-14.67
69420;BMP280;56612;52.030;113.524;2022-11-20T15:38:07;93312.66;;;-14.73
69420;BMP280;56612;52.030;113.524;2022-11-20T15:41:11;93304.75;;;-14.64
69420;BMP280;56612;52.030;113.524;2022-11-20T15:44:15;93301.94;;;-14.66
69420;BMP280;56612;52.030;113.524;2022-11-20T15:47:25;93291.00;;;-14.67
69420;BMP280;56612;52.030;113.524;2022-11-20T15:50:37;93303.09;;;-14.73
69420;BMP280;56612;52.030;113.524;2022-11-20T15:53:42;93297.50;;;-14.66
69420;BMP280;56612;52.030;113.524;2022-11-20T15:56:47;93295.19;;;-14.69
69420;BMP280;56612;52.030;113.524;2022-11-20T15:59:51;93297.75;;;-14.75
69420;BMP280;56612;52.030;113.524;2022-11-20T16:02:54;93315.00;;;-14.87
69420;BMP280;56612;52.030;113.524;2022-11-20T16:05:57;93315.19;;;-14.96
69420;BMP280;56612;52.030;113.524;2022-11-20T16:09:01;93317.28;;;-14.94
69420;BMP280;56612;52.030;113.524;2022-11-20T16:12:04;93319.63;;;-14.96
69420;BMP280;56612;52.030;113.524;2022-11-20T16:15:09;93325.22;;;-14.98
69420;BMP280;56612;52.030;113.524;2022-11-20T16:18:30;93327.50;;;-15.05
69420;BMP280;56612;52.030;113.524;2022-11-20T16:21:35;93327.53;;;-15.11
69420;BMP280;56612;52.030;113.524;2022-11-20T16:24:40;93326.81;;;-15.12
69420;BMP280;56612;52.030;113.524;2022-11-20T16:27:43;93324.94;;;-15.22
69420;BMP280;56612;52.030;113.524;2022-11-20T16:30:47;93326.56;;;-15.19
69420;BMP280;56612;52.030;113.524;2022-11-20T16:33:55;93333.31;;;-15.33
69420;BMP280;56612;52.030;113.524;2022-11-20T16:36:58;93326.03;;;-15.40
69420;BMP280;56612;52.030;113.524;2022-11-20T16:40:03;93319.50;;;-15.41
69420;BMP280;56612;52.030;113.524;2022-11-20T16:43:09;93321.38;;;-15.36
69420;BMP280;56612;52.030;113.524;2022-11-20T16:46:17;93309.78;;;-15.31
69420;BMP280;56612;52.030;113.524;2022-11-20T16:49:20;93317.47;;;-15.26
69420;BMP280;56612;52.030;113.524;2022-11-20T16:52:24;93311.88;;;-15.30
69420;BMP280;56612;52.030;113.524;2022-11-20T16:55:27;93303.41;;;-15.53
69420;BMP280;56612;52.030;113.524;2022-11-20T16:58:30;93303.88;;;-15.49
69420;BMP280;56612;52.030;113.524;2022-11-20T17:01:33;93308.09;;;-15.35
69420;BMP280;56612;52.030;113.524;2022-11-20T17:04:40;93304.63;;;-15.43
69420;BMP280;56612;52.030;113.524;2022-11-20T17:07:44;93302.50;;;-15.50
69420;BMP280;56612;52.030;113.524;2022-11-20T17:10:47;93299.66;;;-15.63
69420;BMP280;56612;52.030;113.524;2022-11-20T17:13:54;93303.16;;;-15.61
69420;BMP280;56612;52.030;113.524;2022-11-20T17:16:57;93301.72;;;-15.67
69420;BMP280;56612;52.030;113.524;2022-11-20T17:20:01;93302.56;;;-15.87
69420;BMP280;56612;52.030;113.524;2022-11-20T17:23:05;93316.50;;;-15.88
69420;BMP280;56612;52.030;113.524;2022-11-20T17:26:17;93300.44;;;-15.94
69420;BMP280;56612;52.030;113.524;2022-11-20T17:29:21;93310.00;;;-15.89
69420;BMP280;56612;52.030;113.524;2022-11-20T17:32:25;93319.81;;;-15.76
69420;BMP280;56612;52.030;113.524;2022-11-20T17:35:29;93315.34;;;-15.87
69420;BMP280;56612;52.030;113.524;2022-11-20T17:38:33;93318.59;;;-15.92
69420;BMP280;56612;52.030;113.524;2022-11-20T17:41:38;93316.19;;;-16.07
69420;BMP280;56612;52.030;113.524;2022-11-20T17:44:41;93319.28;;;-15.92
69420;BMP280;56612;52.030;113.524;2022-11-20T17:47:46;93324.66;;;-15.90
69420;BMP280;56612;52.030;113.524;2022-11-20T17:50:50;93327.44;;;-15.93
69420;BMP280;56612;52.030;113.524;2022-11-20T17:53:57;93321.56;;;-15.99
69420;BMP280;56612;52.030;113.524;2022-11-20T17:57:02;93322.69;;;-16.12
69420;BMP280;56612;52.030;113.524;2022-11-20T18:00:25;93333.38;;;-16.08
69420;BMP280;56612;52.030;113.524;2022-11-20T18:03:29;93318.94;;;-16.11
69420;BMP280;56612;52.030;113.524;2022-11-20T18:06:32;93320.50;;;-16.19
69420;BMP280;56612;52.030;113.524;2022-11-20T18:09:36;93319.59;;;-16.21
69420;BMP280;56612;52.030;113.524;2022-11-20T18:12:39;93319.28;;;-16.29
69420;BMP280;56612;52.030;113.524;2022-11-20T18:15:42;93328.88;;;-16.18
69420;BMP280;56612;52.030;113.524;2022-11-20T18:18:46;93338.78;;;-16.06
69420;BMP280;56612;52.030;113.524;2022-11-20T18:21:49;93326.75;;;-16.25
69420;BMP280;56612;52.030;113.524;2022-11-20T18:24:54;93326.19;;;-16.41
69420;BMP280;56612;52.030;113.524;2022-11-20T18:27:57;93324.97;;;-16.45
69420;BMP280;56612;52.030;113.524;2022-11-20T18:31:07;93329.72;;;-16.38